Time;durP1;ratioP1;P1;durP2;ratioP2;P2;SDS_P1;SDS_P2;PMS_P1;PMS_P2;Temp;Humidity;BMP_temperature;BMP_pressure;BME280_temperature;BME280_humidity;BME280_pressure;Samples;Min_cycle;Max_cycle;Signal;HPM_P1;HPM_P2
2022/05/09 00:01:04;;;;;;;3.05;1.60;;;17.70;56.20;;;;;;5094114;28;20412;-73
2022/05/09 00:03:31;;;;;;;4.22;1.88;;;17.70;55.80;;;;;;5092170;28;20044;-73
2022/05/09 00:06:00;;;;;;;4.35;1.75;;;16.70;55.50;;;;;;5095379;28;20135;-73
2022/05/09 00:08:26;;;;;;;4.60;1.95;;;17.80;56.30;;;;;;5128124;27;20473;-73
2022/05/09 00:10:53;;;;;;;4.25;1.60;;;17.60;56.00;;;;;;5093876;28;20056;-73
2022/05/09 00:13:20;;;;;;;2.78;1.90;;;17.70;56.20;;;;;;5094119;28;20044;-73
2022/05/09 00:15:47;;;;;;;4.75;2.05;;;18.00;56.20;;;;;;5094303;28;20416;-73
2022/05/09 00:18:14;;;;;;;3.65;2.10;;;16.70;55.30;;;;;;5092221;28;20058;-73
2022/05/09 00:20:41;;;;;;;3.15;1.88;;;17.50;55.70;;;;;;5093661;28;20055;-73
2022/05/09 00:23:09;;;;;;;4.18;2.13;;;16.90;55.80;;;;;;5093782;28;20048;-73
2022/05/09 00:25:36;;;;;;;3.80;1.92;;;17.30;56.00;;;;;;5093926;28;20056;-73
2022/05/09 00:28:03;;;;;;;3.63;2.10;;;17.50;55.80;;;;;;5093994;28;20051;-73
2022/05/09 00:30:30;;;;;;;3.65;2.10;;;17.40;56.00;;;;;;5127676;27;20091;-73
2022/05/09 00:32:56;;;;;;;5.78;2.25;;;17.30;53.30;;;;;;5127811;27;20048;-73
2022/05/09 00:35:23;;;;;;;5.78;2.30;;;17.30;55.90;;;;;;5092071;28;20484;-73
2022/05/09 00:37:50;;;;;;;3.47;1.95;;;16.60;55.30;;;;;;5127803;27;20428;-73
2022/05/09 00:40:18;;;;;;;5.82;2.33;;;17.50;56.20;;;;;;5094550;28;20040;-73
2022/05/09 00:42:45;;;;;;;3.45;2.10;;;17.00;55.80;;;;;;5094546;28;20044;-73
2022/05/09 00:45:13;;;;;;;4.78;2.13;;;17.30;55.80;;;;;;5094483;28;20650;-73
2022/05/09 00:47:39;;;;;;;3.67;2.00;;;17.80;56.10;;;;;;5093465;28;20055;-72
2022/05/09 00:50:08;;;;;;;3.72;2.35;;;17.30;50.90;;;;;;5093382;28;20060;-73
2022/05/09 00:52:37;;;;;;;3.50;2.10;;;17.90;56.10;;;;;;5124233;27;20052;-73
2022/05/09 00:55:06;;;;;;;5.03;2.40;;;17.40;55.80;;;;;;5093237;28;20048;-73
2022/05/09 00:57:36;;;;;;;3.92;2.08;;;17.20;55.80;;;;;;5127498;27;20091;-73
2022/05/09 01:00:07;;;;;;;4.15;2.28;;;17.20;55.90;;;;;;5091886;28;20493;-73
2022/05/09 01:02:34;;;;;;;3.75;2.17;;;17.20;55.90;;;;;;5093160;28;20500;-73
2022/05/09 01:05:01;;;;;;;4.85;2.13;;;16.40;55.60;;;;;;5093080;28;20434;-73
2022/05/09 01:07:28;;;;;;;6.10;2.10;;;17.30;56.20;;;;;;5091282;28;20052;-73
2022/05/09 01:09:54;;;;;;;4.70;2.30;;;17.90;56.50;;;;;;5092988;28;20056;-73
2022/05/09 01:12:23;;;;;;;5.32;1.90;;;17.20;55.90;;;;;;5093110;28;20382;-73
2022/05/09 01:14:51;;;;;;;4.15;2.25;;;17.20;55.90;;;;;;5092520;28;20052;-73
2022/05/09 01:17:18;;;;;;;3.70;2.00;;;17.00;54.10;;;;;;5094153;28;20054;-73
2022/05/09 01:19:47;;;;;;;3.90;2.17;;;17.30;55.90;;;;;;5092786;28;20141;-73
2022/05/09 01:22:22;;;;;;;2.85;1.83;;;17.10;55.90;;;;;;5092489;28;20052;-73
2022/05/09 01:24:49;;;;;;;4.57;1.92;;;17.10;56.00;;;;;;5073852;28;20060;-73
2022/05/09 01:27:16;;;;;;;4.10;2.30;;;17.00;51.80;;;;;;5074757;28;20053;-73
2022/05/09 01:29:47;;;;;;;4.25;2.30;;;17.10;56.00;;;;;;5072390;28;20057;-73
2022/05/09 01:32:15;;;;;;;5.50;2.10;;;16.10;55.40;;;;;;5072463;28;20052;-73
2022/05/09 01:34:44;;;;;;;5.15;1.92;;;17.10;51.00;;;;;;5072521;28;20059;-73
2022/05/09 01:37:11;;;;;;;5.57;2.33;;;16.20;55.30;;;;;;5071838;28;20052;-73
2022/05/09 01:39:39;;;;;;;3.30;2.10;;;17.10;56.00;;;;;;5073191;28;20053;-73
2022/05/09 01:42:07;;;;;;;3.95;2.17;;;16.40;55.70;;;;;;5072304;28;20052;-73
2022/05/09 01:44:34;;;;;;;3.20;2.20;;;16.30;55.60;;;;;;5106313;28;20135;-73
2022/05/09 01:49:45;;;;;;;4.45;2.00;;;16.90;55.90;;;;;;5106114;28;20051;-73
2022/05/09 01:52:14;;;;;;;3.30;2.03;;;17.10;56.00;;;;;;5072006;28;20056;-73
2022/05/09 01:54:43;;;;;;;3.95;2.20;;;17.00;56.10;;;;;;5071879;28;20055;-73
2022/05/09 01:57:09;;;;;;;4.72;2.50;;;17.20;55.90;;;;;;5092069;28;20060;-73
2022/05/09 01:59:37;;;;;;;3.83;1.92;;;;;;;;;;5118431;27;20052;-73
2022/05/09 02:02:08;;;;;;;3.13;1.90;;;16.70;55.60;;;;;;5071948;28;20139;-73
2022/05/09 02:04:35;;;;;;;4.70;1.88;;;16.30;55.50;;;;;;5072746;28;20048;-73
2022/05/09 02:07:02;;;;;;;4.53;1.98;;;16.90;56.00;;;;;;5072763;28;20056;-72
2022/05/09 02:09:29;;;;;;;3.47;1.95;;;17.00;56.00;;;;;;5088284;28;20056;-72
2022/05/09 02:11:57;;;;;;;2.50;1.70;;;16.30;55.30;;;;;;5072720;28;20131;-72
2022/05/09 02:14:23;;;;;;;2.78;1.67;;;16.20;55.40;;;;;;5071487;28;20068;-72
2022/05/09 02:16:50;;;;;;;3.75;2.00;;;16.90;55.70;;;;;;5071558;28;20048;-72
2022/05/09 02:19:17;;;;;;;3.17;1.95;;;17.00;55.80;;;;;;5072777;28;20051;-72
2022/05/09 02:21:43;;;;;;;3.97;2.00;;;16.90;55.70;;;;;;5071360;28;20142;-72
2022/05/09 02:24:10;;;;;;;3.08;1.77;;;16.70;55.90;;;;;;5071264;28;20052;-72
2022/05/09 02:26:37;;;;;;;3.65;1.70;;;16.10;55.20;;;;;;5105238;28;20052;-72
2022/05/09 02:29:05;;;;;;;3.67;1.70;;;16.70;55.90;;;;;;5072096;28;20131;-72
2022/05/09 02:31:34;;;;;;;2.97;1.55;;;16.50;55.70;;;;;;5071185;28;20052;-72
2022/05/09 02:34:01;;;;;;;3.50;1.67;;;17.10;56.00;;;;;;5071432;28;20395;-72
2022/05/09 02:36:28;;;;;;;3.55;1.80;;;16.90;55.90;;;;;;5071198;28;20064;-72
2022/05/09 02:38:55;;;;;;;2.50;1.75;;;16.50;55.40;;;;;;5072208;28;20047;-72
2022/05/09 02:41:23;;;;;;;2.22;1.63;;;16.30;55.40;;;;;;5070651;28;20045;-72
2022/05/09 02:43:49;;;;;;;4.13;1.98;;;16.80;55.90;;;;;;5072044;28;20530;-73
2022/05/09 02:46:17;;;;;;;3.20;1.70;;;16.90;54.40;;;;;;5071040;28;20056;-73
2022/05/09 02:48:44;;;;;;;2.47;1.52;;;16.90;56.20;;;;;;5071959;28;20051;-73
2022/05/09 02:51:13;;;;;;;3.03;1.80;;;16.70;55.60;;;;;;5070435;28;20052;-73
2022/05/09 02:53:40;;;;;;;3.17;1.70;;;;;;;;;;5070929;28;20048;-73
2022/05/09 02:56:07;;;;;;;3.38;1.73;;;16.60;55.60;;;;;;5071109;28;20052;-73
2022/05/09 02:58:34;;;;;;;2.80;1.58;;;16.10;55.40;;;;;;5071080;28;20053;-73
2022/05/09 03:01:01;;;;;;;2.88;1.70;;;16.70;55.90;;;;;;5083048;28;20135;-73
2022/05/09 03:06:13;;;;;;;;;;;16.70;50.40;;;;;;5105447;28;20052;-72
2022/05/09 03:08:39;;;;;;;3.60;1.40;;;16.60;56.20;;;;;;5071839;28;19924;-73
2022/05/09 03:11:06;;;;;;;2.78;1.63;;;17.50;56.20;;;;;;5070731;28;20052;-72
2022/05/09 03:13:33;;;;;;;2.47;1.67;;;16.80;54.30;;;;;;5070712;28;20515;-73
2022/05/09 03:16:01;;;;;;;3.92;1.60;;;16.60;55.80;;;;;;5071947;28;20716;-73
2022/05/09 03:18:29;;;;;;;2.33;1.50;;;16.60;56.00;;;;;;5070653;28;20053;-73
2022/05/09 03:20:56;;;;;;;2.85;1.65;;;16.50;55.70;;;;;;5071512;28;20059;-73
2022/05/09 03:23:22;;;;;;;2.08;1.50;;;16.60;55.80;;;;;;5073338;28;20082;-73
2022/05/09 03:25:49;;;;;;;2.28;1.45;;;16.90;55.70;;;;;;5074855;28;20063;-73
2022/05/09 03:28:18;;;;;;;2.97;1.60;;;16.70;55.70;;;;;;5074871;28;20067;-73
2022/05/09 03:30:45;;;;;;;3.70;1.58;;;16.10;55.30;;;;;;5074664;28;20420;-73
2022/05/09 03:33:12;;;;;;;2.70;1.70;;;16.60;55.60;;;;;;5075855;28;20044;-73
2022/05/09 03:35:40;;;;;;;3.05;1.60;;;16.50;55.60;;;;;;5074838;28;20052;-73
2022/05/09 03:38:07;;;;;;;2.42;1.60;;;16.70;56.10;;;;;;5074003;28;20419;-73
2022/05/09 03:40:34;;;;;;;1.52;1.25;;;16.70;55.70;;;;;;5074456;28;20402;-73
2022/05/09 03:43:01;;;;;;;2.75;1.85;;;16.60;56.00;;;;;;5074316;28;20512;-73
2022/05/09 03:45:28;;;;;;;2.03;1.40;;;16.70;56.00;;;;;;5074806;28;20139;-73
2022/05/09 03:47:54;;;;;;;2.30;1.40;;;16.50;55.80;;;;;;5075140;28;20044;-73
2022/05/09 03:50:22;;;;;;;2.00;1.48;;;16.60;55.60;;;;;;5074188;28;20056;-73
2022/05/09 03:52:50;;;;;;;3.13;1.38;;;16.90;56.20;;;;;;5074504;28;20060;-73
2022/05/09 03:55:17;;;;;;;3.22;1.70;;;16.70;55.90;;;;;;5074400;28;20495;-73
2022/05/09 03:57:48;;;;;;;2.47;1.70;;;16.40;55.80;;;;;;5108207;28;20053;-73
2022/05/09 04:00:15;;;;;;;2.22;1.42;;;16.70;55.70;;;;;;5073865;28;20052;-72
2022/05/09 04:02:42;;;;;;;3.55;1.60;;;16.40;55.80;;;;;;5074214;28;20048;-73
2022/05/09 04:05:14;;;;;;;2.55;1.52;;;16.50;55.90;;;;;;5075027;28;20056;-73
2022/05/09 04:07:41;;;;;;;2.95;1.70;;;16.50;55.90;;;;;;5074073;28;20080;-72
2022/05/09 04:10:09;;;;;;;2.40;1.30;;;16.10;55.60;;;;;;5073652;28;20060;-73
2022/05/09 04:12:36;;;;;;;3.00;1.58;;;16.30;55.60;;;;;;5074026;28;20127;-72
2022/05/09 04:17:47;;;;;;;2.97;1.50;;;16.60;56.00;;;;;;5107925;28;20052;-73
2022/05/09 04:20:14;;;;;;;2.55;1.60;;;;;;;;;;5074729;28;20048;-73
2022/05/09 04:22:41;;;;;;;3.58;1.67;;;16.40;55.50;;;;;;5075044;28;20048;-72
2022/05/09 04:25:12;;;;;;;3.35;1.60;;;16.50;55.90;;;;;;5073245;28;20044;-73
2022/05/09 04:27:38;;;;;;;3.05;1.90;;;16.50;55.60;;;;;;5073600;28;20052;-72
2022/05/09 04:30:08;;;;;;;2.83;1.63;;;16.40;55.70;;;;;;5087943;28;20150;-73
2022/05/09 04:32:35;;;;;;;2.58;1.52;;;;;;;;;;5093717;28;20055;-72
2022/05/09 04:35:01;;;;;;;2.58;1.75;;;16.80;56.00;;;;;;5093695;28;20051;-72
2022/05/09 04:37:28;;;;;;;3.05;1.60;;;16.10;55.10;;;;;;5093481;28;20056;-72
2022/05/09 04:39:55;;;;;;;2.50;1.40;;;15.90;55.10;;;;;;5093276;28;20052;-72
2022/05/09 04:42:23;;;;;;;3.00;1.65;;;16.90;55.60;;;;;;5090419;28;20056;-73
2022/05/09 04:44:49;;;;;;;3.60;1.88;;;15.80;54.90;;;;;;5073364;28;20127;-72
2022/05/09 04:47:16;;;;;;;2.58;1.50;;;16.70;55.50;;;;;;5072841;28;20053;-72
2022/05/09 04:49:43;;;;;;;2.50;1.60;;;16.00;50.10;;;;;;5073052;28;20053;-72
2022/05/09 04:52:09;;;;;;;2.90;1.48;;;16.70;55.40;;;;;;5073254;28;20462;-72
2022/05/09 04:54:36;;;;;;;2.67;1.60;;;16.60;55.70;;;;;;5073025;28;20131;-72
2022/05/09 04:57:03;;;;;;;2.53;1.60;;;16.60;55.40;;;;;;5073128;28;20052;-72
2022/05/09 04:59:31;;;;;;;2.53;1.50;;;16.50;55.50;;;;;;5118051;27;20408;-72
2022/05/09 05:01:58;;;;;;;2.33;1.60;;;17.10;55.70;;;;;;5094331;28;20054;-72
2022/05/09 05:04:25;;;;;;;4.10;1.60;;;16.20;55.60;;;;;;5093039;28;20059;-72
2022/05/09 05:06:52;;;;;;;3.25;1.70;;;16.50;55.80;;;;;;5127547;27;20403;-72
2022/05/09 05:09:18;;;;;;;3.08;1.60;;;16.40;55.60;;;;;;5094620;28;20051;-72
2022/05/09 05:11:45;;;;;;;3.92;1.77;;;15.90;55.40;;;;;;5092959;28;20051;-72
2022/05/09 05:14:12;;;;;;;2.88;1.42;;;16.30;52.60;;;;;;5093110;28;20052;-72
2022/05/09 05:19:24;;;;;;;3.00;1.55;;;16.40;51.90;;;;;;5127431;27;20423;-72
2022/05/09 05:21:50;;;;;;;4.30;1.50;;;16.60;55.80;;;;;;5092797;28;20055;-72
2022/05/09 05:24:17;;;;;;;3.17;1.77;;;16.50;55.60;;;;;;5092828;28;20495;-72
2022/05/09 05:26:44;;;;;;;3.38;1.83;;;16.60;55.90;;;;;;5092774;28;20056;-72
2022/05/09 05:29:10;;;;;;;2.67;1.60;;;16.90;56.00;;;;;;5092529;28;20056;-72
2022/05/09 05:31:37;;;;;;;2.55;1.75;;;17.40;56.40;;;;;;5090918;28;20056;-72
2022/05/09 05:34:05;;;;;;;2.55;1.60;;;16.60;55.80;;;;;;5092612;28;20489;-72
2022/05/09 05:36:32;;;;;;;1.98;1.50;;;;;;;;;;5092397;28;20063;-72
2022/05/09 05:38:59;;;;;;;2.55;1.55;;;16.80;55.90;;;;;;5092608;28;20062;-72
2022/05/09 05:41:26;;;;;;;2.63;1.85;;;16.50;55.70;;;;;;5092182;28;20106;-72
2022/05/09 05:43:52;;;;;;;5.30;1.85;;;16.60;55.50;;;;;;5093569;28;20139;-72
2022/05/09 05:46:20;;;;;;;2.35;1.60;;;16.70;55.70;;;;;;5091829;28;20412;-72
2022/05/09 05:48:46;;;;;;;4.32;1.60;;;16.90;55.60;;;;;;5090516;28;20492;-72
2022/05/09 05:51:18;;;;;;;3.92;1.80;;;16.70;55.60;;;;;;5077273;28;20070;-72
2022/05/09 05:53:45;;;;;;;3.22;1.80;;;16.70;54.40;;;;;;5071919;28;20056;-72
2022/05/09 05:56:12;;;;;;;4.03;1.70;;;17.00;55.50;;;;;;5071971;28;20060;-72
2022/05/09 05:58:39;;;;;;;2.92;1.73;;;;;;;;;;5071660;28;20052;-72
2022/05/09 06:01:05;;;;;;;3.13;1.75;;;16.00;55.00;;;;;;5071338;28;20049;-72
2022/05/09 06:03:32;;;;;;;2.30;1.75;;;17.00;55.30;;;;;;5073913;28;20511;-72
2022/05/09 06:05:59;;;;;;;3.45;1.70;;;17.00;55.20;;;;;;5092155;28;20416;-72
2022/05/09 06:08:27;;;;;;;4.07;1.58;;;17.20;54.70;;;;;;5092104;28;20052;-72
2022/05/09 06:10:54;;;;;;;4.53;1.70;;;17.50;55.10;;;;;;5092548;28;20397;-72
2022/05/09 06:13:20;;;;;;;2.85;1.70;;;17.50;54.90;;;;;;5091683;28;20048;-72
2022/05/09 06:15:49;;;;;;;4.03;1.45;;;;;;;;;;5092001;28;20055;-72
2022/05/09 06:18:16;;;;;;;4.13;2.10;;;17.80;54.60;;;;;;5081503;28;20060;-72
2022/05/09 06:20:43;;;;;;;3.75;1.77;;;18.10;54.30;;;;;;5071488;28;20138;-72
2022/05/09 06:23:12;;;;;;;3.25;1.60;;;18.20;54.50;;;;;;5072519;28;20632;-72
2022/05/09 06:25:41;;;;;;;2.28;1.50;;;18.00;54.40;;;;;;5070931;28;20048;-72
2022/05/09 06:28:08;;;;;;;2.50;1.50;;;18.50;54.20;;;;;;5071263;28;20055;-72
2022/05/09 06:30:35;;;;;;;3.05;1.73;;;18.50;53.50;;;;;;5081860;28;20408;-73
2022/05/09 06:33:01;;;;;;;2.78;1.60;;;18.70;53.80;;;;;;5090222;28;20046;-72
2022/05/09 06:35:28;;;;;;;3.03;1.42;;;18.70;53.70;;;;;;5091271;28;20407;-72
2022/05/09 06:37:59;;;;;;;2.97;1.40;;;18.60;52.80;;;;;;5091459;28;20058;-72
2022/05/09 06:40:26;;;;;;;3.95;1.85;;;19.00;53.40;;;;;;5093607;28;20061;-72
2022/05/09 06:42:55;;;;;;;3.60;1.75;;;19.70;53.20;;;;;;5075675;28;20147;-72
2022/05/09 06:45:22;;;;;;;4.80;1.70;;;19.20;53.00;;;;;;5091998;28;20713;-72
2022/05/09 06:47:50;;;;;;;4.57;1.70;;;19.80;53.10;;;;;;5091106;28;20083;-73
2022/05/09 06:50:17;;;;;;;4.20;1.90;;;19.30;52.80;;;;;;5089362;28;20062;-72
2022/05/09 06:52:43;;;;;;;3.05;1.50;;;19.20;52.50;;;;;;5091349;28;20090;-72
2022/05/09 06:55:10;;;;;;;3.65;1.77;;;19.30;46.80;;;;;;5090967;28;20050;-72
2022/05/09 06:57:38;;;;;;;4.10;1.63;;;19.50;52.20;;;;;;5092254;28;20047;-72
2022/05/09 07:00:07;;;;;;;3.67;1.60;;;19.50;48.50;;;;;;5090804;28;20047;-72
2022/05/09 07:02:34;;;;;;;3.13;1.80;;;20.00;52.30;;;;;;5125464;27;20082;-72
2022/05/09 07:05:03;;;;;;;3.83;1.60;;;19.70;52.30;;;;;;5123872;27;20059;-71
2022/05/09 07:07:30;;;;;;;1.95;1.42;;;19.60;52.00;;;;;;5108100;28;20063;-72
2022/05/09 07:09:56;;;;;;;3.72;1.80;;;20.10;52.70;;;;;;5111027;28;20484;-72
2022/05/09 07:12:23;;;;;;;2.95;1.65;;;20.40;52.10;;;;;;5111427;28;20059;-71
2022/05/09 07:14:50;;;;;;;4.07;1.50;;;19.70;51.80;;;;;;5112900;28;20046;-71
2022/05/09 07:17:18;;;;;;;4.22;1.50;;;20.20;51.90;;;;;;5111299;28;20055;-70
2022/05/09 07:19:45;;;;;;;5.00;1.70;;;20.10;51.90;;;;;;5111997;28;20047;-71
2022/05/09 07:22:12;;;;;;;2.78;1.60;;;19.30;52.90;;;;;;5101155;28;20056;-71
2022/05/09 07:24:40;;;;;;;4.28;1.70;;;20.20;51.60;;;;;;5090393;28;20048;-71
2022/05/09 07:27:07;;;;;;;4.03;1.50;;;19.40;51.90;;;;;;5090623;28;20051;-71
2022/05/09 07:29:34;;;;;;;2.88;1.63;;;21.10;52.20;;;;;;5088890;28;20489;-71
2022/05/09 07:32:01;;;;;;;2.25;1.50;;;20.30;51.70;;;;;;5091922;28;20048;-71
2022/05/09 07:34:29;;;;;;;3.38;1.52;;;20.10;51.50;;;;;;5090657;28;20056;-71
2022/05/09 07:36:55;;;;;;;4.32;2.05;;;20.70;51.50;;;;;;5090215;28;20135;-71
2022/05/09 07:39:22;;;;;;;5.60;1.73;;;20.90;52.30;;;;;;5088879;28;20054;-71
2022/05/09 07:41:49;;;;;;;2.53;1.60;;;20.50;46.80;;;;;;5078427;28;20048;-71
2022/05/09 07:44:16;;;;;;;4.43;1.67;;;19.80;51.10;;;;;;5089807;28;20067;-71
2022/05/09 07:46:43;;;;;;;3.88;1.60;;;20.10;51.00;;;;;;5085321;28;20060;-70
2022/05/09 07:49:10;;;;;;;12.88;1.80;;;20.40;51.70;;;;;;5091253;28;20055;-70
2022/05/09 07:51:38;;;;;;;3.90;1.77;;;20.30;51.30;;;;;;5091510;28;20676;-70
2022/05/09 07:54:05;;;;;;;4.30;1.48;;;20.80;46.70;;;;;;5091844;28;20131;-70
2022/05/09 07:56:32;;;;;;;4.32;1.80;;;20.90;51.00;;;;;;5090253;28;20055;-72
2022/05/09 07:58:59;;;;;;;3.38;1.50;;;21.20;51.00;;;;;;5089881;28;20056;-72
2022/05/09 08:01:26;;;;;;;3.20;1.70;;;21.00;51.70;;;;;;5090388;28;20059;-72
2022/05/09 08:03:52;;;;;;;5.22;2.05;;;20.40;51.90;;;;;;5090402;28;20044;-72
2022/05/09 08:06:19;;;;;;;9.57;3.22;;;22.00;53.70;;;;;;5091691;28;20039;-72
2022/05/09 08:08:48;;;;;;;7.50;2.67;;;21.40;45.70;;;;;;5091969;28;20051;-72
2022/05/09 08:11:17;;;;;;;12.38;2.60;;;21.10;50.40;;;;;;5094116;28;20059;-71
2022/05/09 08:13:44;;;;;;;7.53;2.38;;;21.30;53.00;;;;;;5094427;28;20488;-71
2022/05/09 08:16:11;;;;;;;9.80;2.40;;;21.10;51.00;;;;;;5086738;28;20052;-71
2022/05/09 08:18:38;;;;;;;7.70;2.00;;;21.30;50.30;;;;;;5082924;28;20677;-71
2022/05/09 08:21:05;;;;;;;9.63;2.10;;;21.90;50.80;;;;;;5125201;27;20056;-72
2022/05/09 08:23:32;;;;;;;5.25;1.90;;;21.70;51.90;;;;;;5093662;28;20055;-72
2022/05/09 08:26:03;;;;;;;8.52;2.10;;;20.50;49.70;;;;;;5095069;28;20047;-72
2022/05/09 08:28:29;;;;;;;7.88;2.20;;;21.60;51.40;;;;;;5094628;28;20078;-72
2022/05/09 08:30:57;;;;;;;5.65;1.67;;;21.40;45.90;;;;;;5085583;28;20056;-73
2022/05/09 08:33:26;;;;;;;6.97;2.05;;;20.60;49.80;;;;;;5073522;28;20525;-72
2022/05/09 08:35:53;;;;;;;4.03;1.80;;;21.40;45.80;;;;;;5074462;28;20049;-71
2022/05/09 08:38:20;;;;;;;4.65;1.98;;;21.10;50.40;;;;;;5082381;28;20130;-71
2022/05/09 08:40:57;;;;;;;3.38;1.75;;;21.40;45.80;;;;;;5093269;28;20051;-71
2022/05/09 08:43:30;;;;;;;4.60;1.88;;;21.10;49.80;;;;;;5093825;28;20093;-71
2022/05/09 08:46:01;;;;;;;3.95;1.88;;;21.40;45.80;;;;;;5093017;28;20382;-71
2022/05/09 08:48:33;;;;;;;4.68;1.83;;;20.80;49.90;;;;;;5080260;28;20050;-71
2022/05/09 08:51:09;;;;;;;8.68;2.35;;;20.90;49.80;;;;;;5085156;28;20059;-71
2022/05/09 08:53:37;;;;;;;4.82;2.00;;;21.30;50.30;;;;;;5073990;28;20485;-71
2022/05/09 08:56:04;;;;;;;5.53;2.50;;;21.90;51.50;;;;;;5073058;28;20052;-71
2022/05/09 08:58:41;;;;;;;6.18;2.17;;;21.40;50.60;;;;;;5107038;28;20099;-71
2022/05/09 09:01:13;;;;;;;8.63;2.57;;;21.10;50.40;;;;;;5072274;28;20053;-71
2022/05/09 09:03:43;;;;;;;8.07;3.10;;;20.40;50.50;;;;;;5082982;28;20385;-71
2022/05/09 09:06:13;;;;;;;8.63;2.70;;;21.40;46.00;;;;;;5092828;28;20066;-71
2022/05/09 09:08:48;;;;;;;8.98;2.40;;;21.40;50.20;;;;;;5094314;28;20048;-71
2022/05/09 09:11:26;;;;;;;6.70;2.15;;;21.60;51.70;;;;;;5092381;28;20043;-71
2022/05/09 09:13:58;;;;;;;5.40;2.47;;;21.40;51.50;;;;;;5094133;28;20151;-71
2022/05/09 09:16:34;;;;;;;9.60;2.85;;;21.30;50.30;;;;;;5093830;28;20044;-71
2022/05/09 09:19:30;;;;;;;6.60;2.20;;;20.50;51.20;;;;;;5091113;28;20079;-71
2022/05/09 09:22:00;;;;;;;9.95;2.58;;;21.40;46.00;;;;;;5073313;28;20059;-71
2022/05/09 09:24:43;;;;;;;6.68;2.33;;;21.40;51.20;;;;;;5073819;28;20056;-71
2022/05/09 09:27:15;;;;;;;5.22;2.20;;;21.40;45.50;;;;;;5073587;28;20053;-71
2022/05/09 09:29:45;;;;;;;7.18;2.60;;;21.00;50.60;;;;;;5073442;28;20080;-71
2022/05/09 09:32:13;;;;;;;5.38;2.30;;;21.10;49.70;;;;;;5087756;28;20515;-71
2022/05/09 09:34:41;;;;;;;4.25;2.38;;;21.40;50.70;;;;;;5093440;28;20044;-71
2022/05/09 09:37:11;;;;;;;5.45;2.30;;;21.40;45.90;;;;;;5086635;28;20058;-71
2022/05/09 09:39:38;;;;;;;6.05;2.47;;;21.40;45.80;;;;;;5092491;28;20052;-71
2022/05/09 09:42:06;;;;;;;7.07;2.40;;;21.40;51.60;;;;;;5092607;28;20058;-71
2022/05/09 09:44:34;;;;;;;5.82;2.30;;;21.40;46.00;;;;;;5092523;28;20074;-71
2022/05/09 09:47:13;;;;;;;5.22;2.08;;;21.20;50.10;;;;;;5092151;28;20054;-71
2022/05/09 09:49:40;;;;;;;6.25;2.10;;;21.00;50.60;;;;;;5091799;28;20515;-71
2022/05/09 09:52:19;;;;;;;5.03;2.10;;;21.50;50.20;;;;;;5081664;28;20135;-71
2022/05/09 09:54:49;;;;;;;5.80;1.98;;;21.30;50.70;;;;;;5071999;28;20151;-71
2022/05/09 09:57:18;;;;;;;4.22;2.33;;;21.20;50.00;;;;;;5071930;28;20052;-71
2022/05/09 09:59:45;;;;;;;6.32;2.17;;;21.20;50.90;;;;;;5071541;28;20489;-71
2022/05/09 10:02:16;;;;;;;5.05;2.00;;;21.30;51.10;;;;;;5072743;28;20057;-71
2022/05/09 10:04:43;;;;;;;5.35;2.10;;;21.40;50.90;;;;;;5071444;28;20066;-71
2022/05/09 10:07:12;;;;;;;3.58;1.95;;;21.20;50.90;;;;;;5111044;27;20062;-71
2022/05/09 10:09:40;;;;;;;5.53;2.05;;;21.20;46.20;;;;;;5091667;28;20481;-72
2022/05/09 10:12:18;;;;;;;5.13;2.20;;;21.20;46.20;;;;;;5093003;28;20527;-71
2022/05/09 10:14:44;;;;;;;5.32;2.00;;;20.90;52.30;;;;;;5091488;28;20052;-70
2022/05/09 10:17:22;;;;;;;3.55;1.90;;;21.50;51.00;;;;;;5088465;28;20135;-71
2022/05/09 10:19:50;;;;;;;4.10;1.77;;;21.20;50.20;;;;;;5084102;28;20052;-71
2022/05/09 10:25:08;;;;;;;3.80;1.90;;;21.20;50.40;;;;;;5125245;27;20634;-70
2022/05/09 10:27:35;;;;;;;4.35;1.80;;;21.20;53.10;;;;;;5100790;28;20055;-72
2022/05/09 10:30:04;;;;;;;4.00;1.77;;;21.20;46.50;;;;;;5102119;28;20054;-72
2022/05/09 10:32:46;;;;;;;6.38;1.90;;;21.70;51.10;;;;;;5099217;28;20047;-72
2022/05/09 10:35:16;;;;;;;6.72;2.15;;;21.10;52.40;;;;;;5109411;28;20448;-72
2022/05/09 10:37:45;;;;;;;3.85;1.70;;;20.60;50.90;;;;;;5112701;28;20051;-72
2022/05/09 10:40:19;;;;;;;3.25;1.70;;;21.10;46.60;;;;;;5100341;28;20048;-72
2022/05/09 10:42:49;;;;;;;4.18;1.77;;;21.10;46.60;;;;;;5099449;28;20048;-72
2022/05/09 10:45:18;;;;;;;6.30;1.50;;;21.10;46.70;;;;;;5102500;28;20054;-72
2022/05/09 10:47:48;;;;;;;4.32;1.75;;;20.70;50.90;;;;;;5100956;28;20043;-72
2022/05/09 10:50:17;;;;;;;2.88;1.50;;;20.90;50.80;;;;;;5092474;28;20059;-72
2022/05/09 10:52:47;;;;;;;4.43;1.80;;;20.30;50.60;;;;;;5090452;28;20055;-73
2022/05/09 10:55:18;;;;;;;6.45;2.00;;;21.10;46.80;;;;;;5090049;28;20403;-73
2022/05/09 10:57:47;;;;;;;4.32;1.73;;;21.10;46.80;;;;;;5124692;27;20051;-72
2022/05/09 11:00:18;;;;;;;3.72;1.55;;;21.10;46.80;;;;;;5090843;28;20579;-72
2022/05/09 11:02:53;;;;;;;3.97;1.50;;;21.20;51.00;;;;;;5091106;28;20511;-73
2022/05/09 11:05:20;;;;;;;;;;;21.10;46.80;;;;;;5091346;28;20074;-73
2022/05/09 11:07:49;;;;;;;2.63;1.52;;;21.10;46.90;;;;;;5090923;28;19942;-73
2022/05/09 11:10:20;;;;;;;2.60;1.75;;;20.80;51.20;;;;;;5090806;28;20060;-71
2022/05/09 11:13:21;;;;;;;2.55;1.50;;;20.80;50.70;;;;;;5091078;28;20048;-71
2022/05/09 11:15:57;;;;;;;3.38;1.50;;;20.30;51.60;;;;;;5072517;28;20412;-71
2022/05/09 11:18:49;;;;;;;1.88;1.30;;;21.00;46.90;;;;;;5090565;28;20055;-72
2022/05/09 11:21:21;;;;;;;4.43;1.52;;;21.10;47.00;;;;;;5090973;28;20056;-71
2022/05/09 11:23:53;;;;;;;2.17;1.23;;;21.20;52.30;;;;;;5090728;28;20485;-71
2022/05/09 11:26:24;;;;;;;3.80;1.50;;;21.20;51.90;;;;;;5090682;28;20048;-71
2022/05/09 11:29:09;;;;;;;2.45;1.50;;;21.10;52.60;;;;;;5090763;28;20477;-72
2022/05/09 11:31:43;;;;;;;2.38;1.50;;;21.10;51.10;;;;;;5076189;28;20075;-71
2022/05/09 11:34:18;;;;;;;4.13;1.80;;;20.90;51.80;;;;;;5070948;28;20056;-71
2022/05/09 11:36:51;;;;;;;3.33;1.70;;;19.90;51.20;;;;;;5104497;28;20052;-72
2022/05/09 11:39:21;;;;;;;3.95;1.55;;;21.00;51.40;;;;;;5070528;28;20060;-72
2022/05/09 11:41:53;;;;;;;2.83;1.60;;;20.80;50.80;;;;;;5070496;28;20056;-72
2022/05/09 11:44:20;;;;;;;3.72;1.73;;;21.00;47.10;;;;;;5074371;28;20052;-71
2022/05/09 11:47:05;;;;;;;1.60;1.30;;;21.10;53.00;;;;;;5076618;28;20489;-71
2022/05/09 11:49:48;;;;;;;2.28;1.40;;;21.10;47.10;;;;;;5084442;28;20414;-72
2022/05/09 11:52:20;;;;;;;2.47;1.27;;;21.30;52.40;;;;;;5094832;28;20485;-71
2022/05/09 11:54:48;;;;;;;2.80;1.40;;;20.10;52.40;;;;;;5094384;28;20047;-73
2022/05/09 11:57:21;;;;;;;2.95;1.40;;;20.60;51.10;;;;;;5094625;28;20056;-73
2022/05/09 11:59:50;;;;;;;3.03;1.30;;;21.10;47.20;;;;;;5094037;28;20048;-73
2022/05/09 12:02:18;;;;;;;2.60;1.45;;;20.90;51.70;;;;;;5094309;28;20067;-74
2022/05/09 12:04:47;;;;;;;4.78;1.50;;;21.00;47.10;;;;;;5109910;27;20062;-73
2022/05/09 12:07:44;;;;;;;2.40;1.58;;;21.10;53.30;;;;;;5073633;28;20058;-73
2022/05/09 12:10:19;;;;;;;3.45;1.30;;;21.00;51.50;;;;;;5073925;28;20054;-73
2022/05/09 12:12:49;;;;;;;2.17;1.38;;;21.00;47.20;;;;;;5075136;28;20055;-72
2022/05/09 12:15:49;;;;;;;2.45;1.70;;;20.90;53.30;;;;;;5081719;28;20056;-73
2022/05/09 12:18:24;;;;;;;2.47;1.40;;;21.10;47.30;;;;;;5103872;28;20056;-71
2022/05/09 12:21:12;;;;;;;2.70;1.40;;;21.00;52.10;;;;;;5102269;28;20051;-72
2022/05/09 12:24:20;;;;;;;2.28;1.35;;;21.30;51.80;;;;;;5105497;28;20065;-72
2022/05/09 12:26:49;;;;;;;3.70;1.65;;;21.00;47.20;;;;;;5100168;28;20450;-72
2022/05/09 12:29:32;;;;;;;2.60;1.42;;;21.60;51.60;;;;;;5103137;28;20055;-72
2022/05/09 12:31:59;;;;;;;1.90;1.35;;;20.80;51.40;;;;;;5101231;28;20139;-72
2022/05/09 12:34:29;;;;;;;2.03;1.55;;;21.20;51.70;;;;;;5101774;28;20567;-72
2022/05/09 12:36:57;;;;;;;2.60;1.40;;;21.20;51.10;;;;;;5101101;28;20044;-72
2022/05/09 12:39:28;;;;;;;2.50;1.45;;;21.00;47.30;;;;;;5100305;28;20070;-72
2022/05/09 12:41:56;;;;;;;1.67;1.38;;;21.00;51.60;;;;;;5104050;28;20480;-72
2022/05/09 12:44:24;;;;;;;2.33;1.40;;;21.00;47.40;;;;;;5102098;28;20044;-72
2022/05/09 12:46:52;;;;;;;2.15;1.38;;;20.80;50.90;;;;;;5103044;28;20046;-72
2022/05/09 12:49:21;;;;;;;3.10;1.30;;;21.00;47.40;;;;;;5105404;28;20051;-72
2022/05/09 12:51:48;;;;;;;3.22;1.58;;;21.00;47.40;;;;;;5091685;28;20050;-72
2022/05/09 12:54:18;;;;;;;3.05;1.30;;;21.00;47.40;;;;;;5094568;28;20511;-71
2022/05/09 12:56:47;;;;;;;1.70;1.30;;;20.70;51.30;;;;;;5103229;28;20036;-72
2022/05/09 12:59:14;;;;;;;1.55;1.20;;;21.00;47.50;;;;;;5100230;28;20482;-72
2022/05/09 13:01:42;;;;;;;2.17;1.58;;;21.00;52.30;;;;;;5102755;28;20059;-72
2022/05/09 13:04:19;;;;;;;2.47;1.33;;;20.80;51.30;;;;;;5105131;28;20047;-72
2022/05/09 13:06:47;;;;;;;2.83;1.48;;;21.00;47.50;;;;;;5104073;28;20048;-72
2022/05/09 13:09:17;;;;;;;2.65;1.20;;;21.10;51.90;;;;;;5099688;28;20040;-72
2022/05/09 13:11:47;;;;;;;1.75;1.20;;;21.20;52.30;;;;;;5101967;28;20058;-72
2022/05/09 13:14:17;;;;;;;2.00;1.25;;;21.00;47.60;;;;;;5100174;28;20455;-72